Time;durP1;ratioP1;P1;durP2;ratioP2;P2;SDS_P1;SDS_P2;PMS_P1;PMS_P2;Temp;Humidity;BMP_temperature;BMP_pressure;BME280_temperature;BME280_humidity;BME280_pressure;Samples;Min_cycle;Max_cycle;Signal;HPM_P1;HPM_P2
2021/08/26 00:06:21;;;;;;;;;32.00;28.75;;;;;16.31;72.40;101007.34;5058179;28;45441;-59
2021/08/26 00:08:50;;;;;;;;;38.50;33.00;;;;;16.25;73.75;101014.81;5058123;28;45408;-60
2021/08/26 00:11:23;;;;;;;;;34.75;30.00;;;;;16.18;73.67;101009.84;5057713;28;45299;-60
2021/08/26 00:13:51;;;;;;;;;30.50;27.50;;;;;16.14;73.52;101002.13;5040913;28;45321;-62
2021/08/26 00:16:22;;;;;;;;;39.75;31.25;;;;;16.18;72.02;101016.94;5058085;28;45407;-60
2021/08/26 00:18:47;;;;;;;;;31.00;27.00;;;;;16.18;72.30;101023.13;5056819;28;45472;-60
2021/08/26 00:21:13;;;;;;;;;31.00;27.50;;;;;16.16;72.08;101016.19;5057785;28;46176;-60
2021/08/26 00:23:40;;;;;;;;;35.50;30.75;;;;;16.16;71.85;101019.69;5057734;28;45367;-60
2021/08/26 00:26:05;;;;;;;;;33.50;31.25;;;;;16.13;72.92;101016.34;5056530;28;45417;-60
2021/08/26 00:28:30;;;;;;;;;33.75;29.25;;;;;16.11;72.35;101023.53;5040147;28;45480;-59
2021/08/26 00:30:56;;;;;;;;;33.25;27.75;;;;;16.05;71.63;101015.00;5039532;28;48212;-60
2021/08/26 00:33:21;;;;;;;;;28.75;28.00;;;;;15.99;72.14;101003.88;5058260;28;45306;-60
2021/08/26 00:35:47;;;;;;;;;34.75;29.25;;;;;16.05;72.70;101025.59;5039695;28;45501;-60
2021/08/26 00:38:12;;;;;;;;;32.50;27.50;;;;;15.98;72.31;101021.59;5056807;28;45462;-59
2021/08/26 00:40:38;;;;;;;;;27.00;25.00;;;;;16.01;72.77;101016.09;5057165;28;45516;-61
2021/08/26 00:43:03;;;;;;;;;31.25;24.75;;;;;15.99;72.37;101019.81;5056893;28;45446;-60
2021/08/26 00:45:30;;;;;;;;;28.00;27.00;;;;;15.95;72.10;101019.09;5057733;28;45296;-61
2021/08/26 00:47:56;;;;;;;;;27.50;25.00;;;;;15.94;72.56;101021.84;5058471;28;45617;-60
2021/08/26 00:50:26;;;;;;;;;31.25;27.25;;;;;15.91;71.87;101022.88;5057336;28;46690;-60
2021/08/26 00:52:55;;;;;;;;;25.75;24.50;;;;;15.85;72.51;101002.81;5056777;28;45237;-60
2021/08/26 00:55:21;;;;;;;;;28.00;25.00;;;;;15.80;72.30;101009.31;5057197;28;45387;-60
2021/08/26 00:57:47;;;;;;;;;26.75;23.25;;;;;15.82;72.46;101018.03;5055565;28;45354;-59
2021/08/26 01:00:13;;;;;;;;;25.00;21.25;;;;;15.75;72.20;101009.56;5057430;28;46219;-60
2021/08/26 01:02:45;;;;;;;;;24.75;21.75;;;;;15.74;72.96;101015.81;5039328;28;45501;-60
2021/08/26 01:05:10;;;;;;;;;22.25;22.00;;;;;15.71;72.59;101010.66;5056026;28;45440;-61
2021/08/26 01:07:55;;;;;;;;;19.75;19.00;;;;;15.65;73.23;101009.22;5057134;28;45424;-58
2021/08/26 01:10:24;;;;;;;;;20.50;18.25;;;;;15.63;73.44;101006.63;5056463;28;47281;-59
2021/08/26 01:12:52;;;;;;;;;21.00;18.00;;;;;15.56;73.21;100999.97;5055460;28;45379;-60
2021/08/26 01:15:17;;;;;;;;;21.25;18.75;;;;;15.54;72.48;100996.53;5057006;28;45407;-60
2021/08/26 01:17:45;;;;;;;;;25.00;21.75;;;;;15.55;73.02;101005.38;5057264;28;45400;-59
2021/08/26 01:20:11;;;;;;;;;22.75;19.00;;;;;15.51;72.98;100999.34;5056666;28;45570;-59
2021/08/26 01:22:37;;;;;;;;;26.50;21.25;;;;;15.48;73.14;100994.22;5056733;28;45417;-60
2021/08/26 01:25:18;;;;;;;;;19.25;17.50;;;;;15.46;74.30;100999.63;5055658;28;45366;-60
2021/08/26 01:28:18;;;;;;;;;24.00;19.75;;;;;15.44;73.79;101001.50;5055824;28;45424;-60
2021/08/26 01:30:44;;;;;;;;;18.75;17.00;;;;;15.40;73.52;100996.44;4990034;28;48674;-60
2021/08/26 01:33:09;;;;;;;;;18.00;16.00;;;;;15.36;73.40;100990.44;5054785;28;45300;-59
2021/08/26 01:35:35;;;;;;;;;20.00;17.00;;;;;15.36;73.96;100994.88;5056756;28;45692;-59
2021/08/26 01:38:01;;;;;;;;;19.50;14.75;;;;;15.33;73.20;100991.47;5056693;28;45343;-59
2021/08/26 01:40:40;;;;;;;;;15.75;13.75;;;;;15.28;74.41;100985.56;5055298;28;47262;-59
2021/08/26 01:43:11;;;;;;;;;19.50;16.00;;;;;15.25;73.78;100988.38;5056623;28;45469;-58
2021/08/26 01:45:48;;;;;;;;;16.25;14.75;;;;;15.14;74.23;100974.84;5056358;28;45244;-60
2021/08/26 01:48:15;;;;;;;;;16.25;14.00;;;;;15.23;73.90;100990.25;5054947;28;45400;-59
2021/08/26 01:50:41;;;;;;;;;16.25;14.50;;;;;15.22;73.55;100993.84;5056033;28;45688;-60
2021/08/26 01:53:06;;;;;;;;;13.25;12.25;;;;;15.21;73.82;100986.81;5055932;28;45377;-59
2021/08/26 01:55:32;;;;;;;;;13.00;9.50;;;;;15.17;73.82;100990.59;5055013;28;45430;-59
2021/08/26 01:57:59;;;;;;;;;12.25;12.25;;;;;15.18;73.64;100987.00;5056309;28;45311;-59
2021/08/26 02:00:24;;;;;;;;;14.75;14.75;;;;;15.14;73.93;100978.34;5054501;28;47087;-58
2021/08/26 02:02:49;;;;;;;;;18.00;14.50;;;;;15.20;74.17;100990.41;5055741;28;45469;-60
2021/08/26 02:05:15;;;;;;;;;20.75;17.75;;;;;15.19;73.77;100986.06;5055936;28;45431;-59
2021/08/26 02:07:58;;;;;;;;;13.50;13.50;;;;;15.17;74.05;100985.28;5055896;28;45633;-60
2021/08/26 02:10:24;;;;;;;;;17.00;14.50;;;;;15.18;74.54;100987.84;5055925;28;45790;-60
2021/08/26 02:12:50;;;;;;;;;14.75;14.00;;;;;15.21;73.80;100985.97;5055700;28;45475;-60
2021/08/26 02:15:17;;;;;;;;;13.75;11.50;;;;;15.21;74.40;100981.53;5056188;28;45867;-60
2021/08/26 02:17:42;;;;;;;;;17.75;14.75;;;;;15.24;73.91;100986.66;5055884;28;45251;-58
2021/08/26 02:20:08;;;;;;;;;15.75;10.75;;;;;15.24;73.91;100991.97;5055668;28;45269;-59
2021/08/26 02:22:33;;;;;;;;;15.00;11.75;;;;;15.21;74.00;100980.66;5055718;28;45248;-60
2021/08/26 02:24:59;;;;;;;;;15.00;12.25;;;;;15.17;74.19;100985.28;5054712;28;45344;-59
2021/08/26 02:27:24;;;;;;;;;14.75;13.25;;;;;15.15;74.18;100976.56;5055879;28;45584;-60
2021/08/26 02:29:49;;;;;;;;;15.50;15.25;;;;;15.13;75.46;100983.72;5055372;28;46218;-60
2021/08/26 02:32:15;;;;;;;;;15.25;14.50;;;;;15.05;74.46;100981.47;5055528;28;45455;-59
2021/08/26 02:34:40;;;;;;;;;14.50;12.75;;;;;15.03;74.69;100978.03;5055591;28;45418;-59
2021/08/26 02:37:07;;;;;;;;;17.25;15.25;;;;;14.99;76.22;100982.66;5055734;28;45316;-59
2021/08/26 02:39:34;;;;;;;;;16.75;15.50;;;;;14.96;74.99;100988.13;5055446;28;46356;-60
2021/08/26 02:42:00;;;;;;;;;16.25;15.75;;;;;14.96;74.25;100985.47;5055564;27;45359;-59
2021/08/26 02:44:25;;;;;;;;;20.00;15.50;;;;;14.96;75.37;100987.25;5054039;28;45311;-60
2021/08/26 02:46:51;;;;;;;;;19.00;16.75;;;;;14.92;75.02;100988.34;5055485;28;45586;-59
2021/08/26 02:49:16;;;;;;;;;18.25;14.25;;;;;14.88;75.24;100977.06;5055036;28;46852;-60
2021/08/26 02:51:41;;;;;;;;;14.50;14.00;;;;;14.88;75.40;100982.38;5037089;28;45331;-59
2021/08/26 02:54:07;;;;;;;;;21.50;13.75;;;;;14.88;74.84;100979.72;5054984;28;45257;-60
2021/08/26 02:56:32;;;;;;;;;13.75;13.75;;;;;14.83;75.30;100972.00;5055736;28;45624;-59
2021/08/26 02:58:57;;;;;;;;;13.75;11.25;;;;;14.80;75.93;100971.28;5053468;28;47641;-59
2021/08/26 03:01:23;;;;;;;;;19.00;14.75;;;;;14.76;75.40;100970.63;5054950;28;45229;-59
2021/08/26 03:03:48;;;;;;;;;13.25;12.75;;;;;14.78;75.41;100975.81;5036880;28;45248;-59
2021/08/26 03:06:13;;;;;;;;;13.00;12.50;;;;;14.77;75.38;100974.97;5036524;28;45593;-60
2021/08/26 03:08:39;;;;;;;;;15.25;13.25;;;;;14.73;75.15;100968.97;5054980;28;46508;-60
2021/08/26 03:11:04;;;;;;;;;12.00;11.75;;;;;14.73;75.25;100966.31;5036718;28;45334;-60
2021/08/26 03:13:30;;;;;;;;;12.75;9.75;;;;;14.71;75.23;100973.47;5055085;28;45485;-59
2021/08/26 03:15:55;;;;;;;;;11.00;7.75;;;;;14.67;75.07;100966.59;5055003;28;45525;-57
2021/08/26 03:18:20;;;;;;;;;12.25;11.00;;;;;14.66;75.26;100959.59;5054670;28;45450;-59
2021/08/26 03:20:47;;;;;;;;;10.25;8.00;;;;;14.65;75.07;100959.69;5053402;28;45769;-59
2021/08/26 03:23:12;;;;;;;;;9.00;8.75;;;;;14.61;75.19;100957.19;5054935;28;45489;-60
2021/08/26 03:25:38;;;;;;;;;11.25;10.50;;;;;14.55;75.13;100951.34;5055010;28;45349;-59
2021/08/26 03:28:04;;;;;;;;;12.50;8.00;;;;;14.57;75.15;100966.22;5053461;28;47208;-57
2021/08/26 03:30:29;;;;;;;;;10.25;9.25;;;;;14.54;75.24;100957.56;5054564;28;45253;-59
2021/08/26 03:32:54;;;;;;;;;9.50;8.75;;;;;14.51;75.35;100961.25;5054955;28;45366;-60
2021/08/26 03:35:20;;;;;;;;;9.75;9.25;;;;;14.49;75.70;100954.31;5054833;28;45562;-59
2021/08/26 03:37:45;;;;;;;;;12.00;10.50;;;;;14.50;75.38;100966.59;5054601;28;45572;-59
2021/08/26 03:40:11;;;;;;;;;5.00;4.00;;;;;14.48;75.48;100966.69;5055051;28;45222;-59
2021/08/26 03:42:37;;;;;;;;;10.25;9.00;;;;;14.44;75.64;100959.84;5054784;28;45348;-59
2021/08/26 03:45:03;;;;;;;;;10.25;8.00;;;;;14.45;75.79;100961.56;5055024;28;45571;-59
2021/08/26 03:47:29;;;;;;;;;9.50;9.50;;;;;14.41;75.79;100958.19;5054436;28;46476;-59
2021/08/26 03:49:54;;;;;;;;;6.25;6.25;;;;;14.42;75.47;100965.22;5054180;28;45268;-59
2021/08/26 03:52:20;;;;;;;;;6.25;6.00;;;;;14.45;75.71;100964.22;5054600;28;45343;-60
2021/08/26 03:54:45;;;;;;;;;7.25;7.00;;;;;14.42;75.77;100967.84;5054731;28;45514;-59
2021/08/26 03:57:11;;;;;;;;;6.75;6.75;;;;;14.42;75.71;100967.84;5054186;28;46335;-60
2021/08/26 03:59:36;;;;;;;;;5.50;5.50;;;;;14.41;75.66;100971.44;5054623;28;45460;-60
2021/08/26 04:02:01;;;;;;;;;10.00;7.00;;;;;14.40;75.59;100961.78;5054499;28;45857;-58
2021/08/26 04:04:27;;;;;;;;;8.25;6.50;;;;;14.37;75.75;100959.28;5054689;28;45487;-58
2021/08/26 04:06:52;;;;;;;;;9.00;7.25;;;;;14.39;75.75;100965.34;5054059;28;45352;-60
2021/08/26 04:09:17;;;;;;;;;8.25;6.75;;;;;14.37;75.74;100964.59;5054325;28;45387;-61
2021/08/26 04:11:43;;;;;;;;;6.00;6.00;;;;;14.44;75.94;100973.09;5053994;28;45888;-59
2021/08/26 04:14:08;;;;;;;;;7.50;6.25;;;;;14.49;75.70;100967.53;5054553;28;45348;-60
2021/08/26 04:16:34;;;;;;;;;6.00;6.00;;;;;14.54;75.44;100979.63;5054139;28;45523;-59
2021/08/26 04:18:59;;;;;;;;;8.50;5.00;;;;;14.53;75.34;100963.81;5056570;28;45333;-59
2021/08/26 04:21:24;;;;;;;;;6.50;5.75;;;;;14.57;75.30;100986.53;5057839;28;45351;-59
2021/08/26 04:23:50;;;;;;;;;7.00;7.00;;;;;14.55;75.07;100985.75;5057864;28;45507;-60
2021/08/26 04:26:15;;;;;;;;;4.75;4.50;;;;;14.57;75.34;100978.59;5057213;28;46481;-59
2021/08/26 04:28:42;;;;;;;;;5.75;5.75;;;;;14.62;75.16;100973.91;5057545;28;45310;-60
2021/08/26 04:31:07;;;;;;;;;2.00;2.00;;;;;14.68;75.04;100973.59;5057843;28;45317;-59
2021/08/26 04:33:32;;;;;;;;;7.25;6.00;;;;;14.71;74.77;100957.59;5057681;28;45261;-58
2021/08/26 04:35:58;;;;;;;;;6.25;5.50;;;;;14.80;74.57;100972.16;5039264;28;46398;-59
2021/08/26 04:38:23;;;;;;;;;9.25;9.25;;;;;14.85;74.63;100961.34;5039498;28;45267;-59
2021/08/26 04:40:49;;;;;;;;;5.50;5.00;;;;;14.87;74.29;100967.41;5039301;28;45713;-59
2021/08/26 04:43:14;;;;;;;;;4.25;3.75;;;;;14.89;74.15;100958.44;5039383;28;45585;-59
2021/08/26 04:45:39;;;;;;;;;5.00;5.00;;;;;14.91;74.39;100963.69;5057144;28;45383;-59
2021/08/26 04:48:05;;;;;;;;;3.75;3.75;;;;;14.91;74.13;100963.69;5057486;28;45480;-60
2021/08/26 04:50:31;;;;;;;;;6.75;4.25;;;;;14.94;73.86;100954.69;5055897;28;45292;-59
2021/08/26 04:52:56;;;;;;;;;5.25;4.50;;;;;14.96;73.91;100958.13;5057371;28;45474;-60
2021/08/26 04:55:21;;;;;;;;;6.25;5.00;;;;;15.03;74.05;100962.16;5038528;28;48966;-59
2021/08/26 04:57:47;;;;;;;;;5.00;3.00;;;;;15.04;73.95;100956.78;5038630;28;45519;-59
2021/08/26 05:00:13;;;;;;;;;4.00;3.25;;;;;15.08;73.96;100961.94;5057084;28;45281;-61
2021/08/26 05:02:38;;;;;;;;;6.00;4.00;;;;;15.13;73.86;100958.06;5057466;28;45320;-58
2021/08/26 05:05:04;;;;;;;;;3.25;2.75;;;;;15.21;73.83;100959.47;5057018;28;45970;-59
2021/08/26 05:07:29;;;;;;;;;3.00;2.00;;;;;15.23;73.72;100953.16;5056864;28;45496;-59
2021/08/26 05:09:54;;;;;;;;;4.00;4.00;;;;;15.26;73.66;100958.28;5056907;28;45591;-60
2021/08/26 05:12:20;;;;;;;;;4.00;3.00;;;;;15.27;73.74;100952.03;5057447;28;45607;-58
2021/08/26 05:14:45;;;;;;;;;1.00;1.00;;;;;15.32;73.44;100950.00;5056925;28;46142;-61
2021/08/26 05:17:11;;;;;;;;;2.50;2.00;;;;;15.39;73.39;100960.25;5038744;28;45328;-60
2021/08/26 05:19:36;;;;;;;;;5.50;2.75;;;;;15.40;73.63;100954.91;5057770;28;45271;-59
2021/08/26 05:22:03;;;;;;;;;3.00;3.00;;;;;15.40;73.46;100954.91;5057221;28;45356;-61
2021/08/26 05:24:29;;;;;;;;;4.00;3.50;;;;;15.47;73.50;100961.56;5038588;28;47379;-61
2021/08/26 05:26:54;;;;;;;;;3.00;3.00;;;;;15.52;73.40;100963.13;5056503;28;45389;-60
2021/08/26 05:29:20;;;;;;;;;4.00;4.00;;;;;15.56;73.40;100972.63;5056272;28;45362;-62
2021/08/26 05:31:45;;;;;;;;;4.00;4.00;;;;;15.59;73.33;100967.13;5055085;28;45516;-60
2021/08/26 05:34:11;;;;;;;;;4.75;3.00;;;;;15.55;73.02;100950.53;5055574;28;46340;-60
2021/08/26 05:36:37;;;;;;;;;5.75;3.75;;;;;15.64;73.48;100973.03;5038511;28;45397;-59
2021/08/26 05:39:02;;;;;;;;;5.00;3.25;;;;;15.69;73.16;100970.13;5056450;28;45312;-60
2021/08/26 05:41:28;;;;;;;;;2.00;2.00;;;;;15.69;72.88;100971.00;5039301;28;45578;-59
2021/08/26 05:43:53;;;;;;;;;3.00;3.00;;;;;15.69;73.07;100971.00;5056484;28;45498;-60
2021/08/26 05:46:19;;;;;;;;;3.50;3.25;;;;;15.70;73.03;100953.25;5056238;28;45395;-59
2021/08/26 05:48:44;;;;;;;;;3.50;3.25;;;;;15.66;72.84;100955.25;5054941;28;45269;-58
2021/08/26 05:51:10;;;;;;;;;5.50;3.00;;;;;15.69;72.98;100964.81;5056748;28;45225;-59
2021/08/26 05:53:35;;;;;;;;;3.00;3.00;;;;;15.71;73.01;100961.16;5056253;28;45544;-59
2021/08/26 05:56:00;;;;;;;;;4.25;2.75;;;;;15.70;72.95;100950.63;5055944;28;45262;-60
2021/08/26 05:58:26;;;;;;;;;5.00;5.00;;;;;15.69;72.92;100951.56;5054925;28;45386;-58
2021/08/26 06:00:51;;;;;;;;;4.50;2.50;;;;;15.72;72.93;100956.69;5038003;28;45110;-60
2021/08/26 06:03:16;;;;;;;;;3.00;3.00;;;;;15.77;72.80;100963.47;5055660;28;46176;-60
2021/08/26 06:05:43;;;;;;;;;4.50;3.75;;;;;15.79;72.66;100955.41;5054389;28;45788;-61
2021/08/26 06:08:08;;;;;;;;;3.00;3.00;;;;;15.82;72.79;100960.53;5056054;28;45162;-60
2021/08/26 06:10:34;;;;;;;;;3.00;3.00;;;;;15.86;72.78;100964.72;5055952;28;46121;-58
2021/08/26 06:12:59;;;;;;;;;3.25;3.25;;;;;15.91;72.04;100964.50;5054061;28;47411;-59
2021/08/26 06:15:25;;;;;;;;;6.25;4.00;;;;;15.98;72.47;100962.38;5037544;28;45930;-60
2021/08/26 06:17:50;;;;;;;;;3.00;3.00;;;;;16.03;72.25;100962.97;5055778;28;45294;-58
2021/08/26 06:20:16;;;;;;;;;3.25;3.25;;;;;16.14;72.29;100965.00;5056046;28;45455;-59
2021/08/26 06:22:43;;;;;;;;;5.25;3.00;;;;;16.25;71.37;100967.03;5055721;28;46479;-58
2021/08/26 06:25:10;;;;;;;;;6.50;4.00;;;;;16.35;71.81;100965.56;5055709;28;45362;-59
2021/08/26 06:27:35;;;;;;;;;5.50;4.50;;;;;16.44;71.38;100959.69;5055482;28;45194;-59
2021/08/26 06:30:01;;;;;;;;;6.50;4.00;;;;;16.52;71.65;100967.22;5055758;28;45293;-61
2021/08/26 06:32:27;;;;;;;;;5.00;4.00;;;;;16.60;70.71;100958.78;5055559;28;46676;-60
2021/08/26 06:34:52;;;;;;;;;7.25;4.50;;;;;16.69;70.90;100960.88;5055362;28;45378;-60
2021/08/26 06:37:17;;;;;;;;;3.00;3.00;;;;;16.80;70.76;100970.88;5055426;28;45736;-59
2021/08/26 06:39:43;;;;;;;;;3.00;3.00;;;;;16.85;70.64;100958.19;5055780;28;45640;-59
2021/08/26 06:42:08;;;;;;;;;4.25;3.00;;;;;16.90;70.54;100963.19;5054673;28;45228;-59
2021/08/26 06:44:34;;;;;;;;;5.25;4.00;;;;;16.97;70.49;100961.94;5055277;28;45359;-59
2021/08/26 06:46:59;;;;;;;;;2.00;2.00;;;;;17.11;70.12;100963.72;5055261;28;45348;-60
2021/08/26 06:49:25;;;;;;;;;3.00;3.00;;;;;17.22;69.76;100969.22;5054184;28;45521;-60
2021/08/26 06:51:50;;;;;;;;;4.00;2.00;;;;;17.25;69.39;100962.00;5055060;28;46537;-59
2021/08/26 06:54:16;;;;;;;;;2.00;2.00;;;;;17.19;69.84;100968.56;5055025;28;45379;-60
2021/08/26 06:56:42;;;;;;;;;3.75;3.00;;;;;17.12;70.27;100965.44;5055735;28;45410;-61
2021/08/26 06:59:07;;;;;;;;;4.75;3.00;;;;;17.11;70.20;100955.75;5055247;28;45398;-61
2021/08/26 07:01:33;;;;;;;;;4.00;4.00;;;;;17.08;70.18;100951.50;5052973;28;47523;-61
2021/08/26 07:03:58;;;;;;;;;3.75;2.00;;;;;17.25;70.09;100960.22;5054863;28;45423;-62
2021/08/26 07:06:25;;;;;;;;;5.00;4.00;;;;;17.32;70.03;100956.22;5036950;28;45325;-62
2021/08/26 07:08:51;;;;;;;;;3.50;3.00;;;;;17.43;69.75;100962.66;5053648;28;45402;-61
2021/08/26 07:11:16;;;;;;;;;6.50;3.75;;;;;17.44;69.68;100961.72;5054741;28;45253;-61
2021/08/26 07:13:42;;;;;;;;;5.25;4.00;;;;;17.51;69.31;100963.91;5054763;28;45406;-64
2021/08/26 07:16:07;;;;;;;;;4.25;4.25;;;;;17.50;69.34;100962.19;5054891;28;45224;-60
2021/08/26 07:18:32;;;;;;;;;6.25;5.00;;;;;17.55;69.34;100961.06;5054734;28;45634;-64
2021/08/26 07:20:58;;;;;;;;;7.00;5.00;;;;;17.57;69.31;100959.16;5054640;28;45271;-62
2021/08/26 07:23:23;;;;;;;;;5.00;4.75;;;;;17.61;69.26;100953.50;5054435;28;45301;-63
2021/08/26 07:25:49;;;;;;;;;5.75;5.75;;;;;17.81;68.95;100959.34;5054306;28;45526;-63
2021/08/26 07:28:14;;;;;;;;;6.00;6.00;;;;;17.93;68.75;100958.56;5054661;28;45537;-62
2021/08/26 07:30:39;;;;;;;;;8.25;6.75;;;;;18.01;67.99;100954.56;5054547;28;45993;-63
2021/08/26 07:33:05;;;;;;;;;6.50;5.00;;;;;18.08;67.80;100956.72;5052999;28;46284;-63
2021/08/26 07:35:30;;;;;;;;;8.75;4.25;;;;;18.05;67.76;100956.09;5054523;28;45265;-61
2021/08/26 07:37:56;;;;;;;;;7.00;4.00;;;;;18.13;67.98;100953.78;5054547;28;45390;-62
2021/08/26 07:40:22;;;;;;;;;4.75;4.75;;;;;18.22;67.63;100957.63;5052882;28;46958;-63
2021/08/26 07:42:50;;;;;;;;;5.00;5.00;;;;;18.25;67.32;100954.75;5055150;28;45450;-63
2021/08/26 07:45:16;;;;;;;;;3.00;3.00;;;;;18.27;67.28;100955.50;5055145;28;45347;-62
2021/08/26 07:47:41;;;;;;;;;7.00;4.00;;;;;18.31;67.08;100964.16;5053464;28;45390;-63
2021/08/26 07:50:08;;;;;;;;;3.00;2.75;;;;;18.36;67.06;100960.22;5054621;28;46126;-60
2021/08/26 07:52:33;;;;;;;;;5.75;4.75;;;;;18.43;66.84;100966.00;5056182;28;45268;-62
2021/08/26 07:54:59;;;;;;;;;11.00;6.00;;;;;18.51;66.71;100963.66;5039885;28;45293;-63
2021/08/26 07:57:25;;;;;;;;;7.00;6.00;;;;;18.62;66.65;100960.28;5058123;28;45498;-62
2021/08/26 07:59:50;;;;;;;;;6.25;6.00;;;;;18.71;66.09;100960.59;5057697;28;46378;-63
2021/08/26 08:02:16;;;;;;;;;7.25;5.00;;;;;18.82;65.95;100968.72;5058000;28;45231;-62
2021/08/26 08:04:41;;;;;;;;;7.75;4.00;;;;;18.86;65.65;100972.00;5057779;28;45452;-61
2021/08/26 08:07:06;;;;;;;;;6.00;5.75;;;;;18.86;65.51;100966.69;5057839;28;45523;-64
2021/08/26 08:09:33;;;;;;;;;5.00;5.00;;;;;18.89;65.18;100972.66;5057701;28;45469;-63
2021/08/26 08:12:00;;;;;;;;;6.50;5.25;;;;;18.92;65.32;100966.25;5057997;28;45478;-63
2021/08/26 08:14:25;;;;;;;;;5.25;5.00;;;;;18.97;64.73;100965.00;5057465;28;45322;-62
2021/08/26 08:16:51;;;;;;;;;4.75;4.75;;;;;18.96;65.20;100968.59;5057167;28;45377;-61
2021/08/26 08:19:16;;;;;;;;;8.00;6.75;;;;;18.93;64.93;100960.81;5057520;28;46088;-63
2021/08/26 08:21:41;;;;;;;;;6.25;6.25;;;;;19.04;65.09;100970.75;5039355;28;45378;-64
2021/08/26 08:24:07;;;;;;;;;5.00;3.25;;;;;19.08;64.65;100968.75;5057594;28;45361;-62
2021/08/26 08:26:33;;;;;;;;;6.00;5.00;;;;;19.04;64.79;100962.75;5057752;28;45487;-61
2021/08/26 08:28:58;;;;;;;;;6.00;6.00;;;;;19.01;64.70;100970.97;5057383;28;45441;-60
2021/08/26 08:31:23;;;;;;;;;6.00;6.00;;;;;18.96;64.82;100968.59;5057189;28;45450;-61
2021/08/26 08:33:49;;;;;;;;;8.25;5.75;;;;;18.89;65.01;100962.00;5039790;28;45792;-61
2021/08/26 08:36:15;;;;;;;;;4.50;4.50;;;;;18.96;65.31;100965.94;5057553;28;45308;-63
2021/08/26 08:38:40;;;;;;;;;4.00;4.00;;;;;18.97;64.96;100964.16;5055728;28;47005;-62
2021/08/26 08:41:06;;;;;;;;;6.00;6.00;;;;;19.00;65.30;100969.25;5038846;28;45407;-63
2021/08/26 08:43:34;;;;;;;;;6.50;6.00;;;;;19.05;64.80;100960.97;5057002;28;45336;-64
2021/08/26 08:46:00;;;;;;;;;6.50;5.75;;;;;19.10;65.02;100965.03;5055649;28;45211;-62
2021/08/26 08:48:27;;;;;;;;;6.50;6.50;;;;;19.09;64.86;100967.78;5056769;28;46038;-63
2021/08/26 08:50:56;;;;;;;;;6.50;4.75;;;;;19.07;65.31;100967.88;5056809;28;45390;-64
2021/08/26 08:53:22;;;;;;;;;4.75;4.75;;;;;19.05;65.10;100971.63;5057595;28;45421;-65
2021/08/26 08:55:48;;;;;;;;;9.50;6.75;;;;;19.06;65.30;100968.84;5057333;28;45616;-63
2021/08/26 08:58:13;;;;;;;;;4.50;4.25;;;;;19.12;65.31;100964.91;5056811;28;45367;-63
2021/08/26 09:00:39;;;;;;;;;7.75;7.25;;;;;19.26;65.28;100971.94;5038819;28;45462;-63
2021/08/26 09:03:05;;;;;;;;;10.75;10.00;;;;;19.30;65.67;100965.41;5056371;28;45277;-62
2021/08/26 09:05:49;;;;;;;;;7.75;7.50;;;;;19.48;65.56;100971.25;5056482;28;45154;-62
2021/08/26 09:08:16;;;;;;;;;5.00;5.00;;;;;19.54;65.40;100957.44;5056995;28;46393;-65
2021/08/26 09:10:41;;;;;;;;;9.75;5.50;;;;;19.59;65.58;100954.47;5056611;28;45352;-62
2021/08/26 09:13:08;;;;;;;;;5.75;5.00;;;;;19.60;65.54;100950.84;5056732;28;45421;-62
2021/08/26 09:15:33;;;;;;;;;7.75;5.50;;;;;19.65;65.56;100956.69;5056771;28;45464;-63
2021/08/26 09:18:16;;;;;;;;;5.00;4.00;;;;;19.73;65.24;100963.28;5055889;28;45657;-62
2021/08/26 09:20:55;;;;;;;;;8.00;5.00;;;;;19.68;65.00;100969.81;5057084;28;45396;-62
2021/08/26 09:23:24;;;;;;;;;3.75;3.25;;;;;19.61;64.93;100973.88;5055134;28;45362;-62
2021/08/26 09:25:52;;;;;;;;;3.50;3.50;;;;;19.52;65.79;100975.38;5022017;28;45570;-61
2021/08/26 09:28:29;;;;;;;;;4.75;4.00;;;;;19.45;65.71;100970.63;5054737;28;46968;-62
2021/08/26 09:31:12;;;;;;;;;3.00;3.00;;;;;19.42;65.64;100972.53;5056087;28;45367;-63
2021/08/26 09:33:49;;;;;;;;;2.75;2.75;;;;;19.52;65.87;100964.72;5056259;28;45318;-63
2021/08/26 09:36:35;;;;;;;;;4.75;4.00;;;;;19.65;65.88;100964.69;5054764;28;45422;-63
2021/08/26 09:39:07;;;;;;;;;3.00;3.00;;;;;19.81;65.52;100959.09;5054734;28;47740;-62
2021/08/26 09:41:42;;;;;;;;;7.00;7.00;;;;;19.99;64.69;100962.25;5037727;28;45898;-63
2021/08/26 09:44:19;;;;;;;;;7.00;4.00;;;;;20.19;64.09;100951.91;5054458;28;45294;-62
2021/08/26 09:46:48;;;;;;;;;5.75;4.25;;;;;20.28;64.52;100958.38;5056460;28;45480;-63
2021/08/26 09:49:20;;;;;;;;;4.50;3.00;;;;;20.36;63.68;100944.44;5054542;28;46443;-62
2021/08/26 09:52:04;;;;;;;;;4.00;4.00;;;;;20.50;63.60;100949.56;5054627;28;45451;-63
2021/08/26 09:54:36;;;;;;;;;2.00;0.25;;;;;20.55;63.49;100952.75;5055773;28;45466;-62
2021/08/26 09:57:04;;;;;;;;;4.00;4.00;;;;;20.57;63.29;100953.47;5055962;28;45297;-63
2021/08/26 09:59:50;;;;;;;;;5.00;3.00;;;;;20.64;63.02;100945.00;5054470;28;46192;-62
2021/08/26 10:02:16;;;;;;;;;3.00;3.00;;;;;20.79;62.74;100953.69;5055854;28;45427;-62
2021/08/26 10:04:42;;;;;;;;;3.25;3.25;;;;;20.97;62.20;100946.03;5037521;28;45396;-62
2021/08/26 10:07:08;;;;;;;;;2.00;2.00;;;;;21.23;61.80;100951.16;5055783;28;45474;-62
2021/08/26 10:09:35;;;;;;;;;3.00;3.00;;;;;21.40;61.51;100947.13;5055272;28;45623;-61
2021/08/26 10:12:01;;;;;;;;;4.00;2.25;;;;;21.53;60.81;100950.50;5055414;28;45357;-63
2021/08/26 10:14:26;;;;;;;;;3.00;1.50;;;;;21.56;60.46;100944.06;5037363;28;45226;-62
2021/08/26 10:16:53;;;;;;;;;2.50;2.50;;;;;21.68;60.17;100944.91;5055994;28;45413;-62
2021/08/26 10:19:19;;;;;;;;;2.25;2.00;;;;;21.84;59.91;100944.50;5055312;28;45443;-62
2021/08/26 10:21:45;;;;;;;;;2.00;2.00;;;;;22.11;59.12;100936.03;5055107;28;45448;-63
2021/08/26 10:24:12;;;;;;;;;4.00;2.00;;;;;22.35;58.50;100940.28;5055653;28;45818;-62
2021/08/26 10:26:42;;;;;;;;;3.00;3.00;;;;;22.54;58.29;100936.06;5055026;28;45446;-63
2021/08/26 10:29:08;;;;;;;;;2.00;2.00;;;;;22.60;58.04;100941.75;5019819;28;47885;-62
2021/08/26 10:31:36;;;;;;;;;3.00;3.00;;;;;22.66;57.37;100934.16;5054879;28;45431;-62
2021/08/26 10:34:23;;;;;;;;;3.00;1.50;;;;;22.70;56.57;100931.06;5055237;28;45316;-63
2021/08/26 10:37:20;;;;;;;;;1.75;1.00;;;;;22.73;56.57;100930.81;5055480;28;45482;-63
2021/08/26 10:39:48;;;;;;;;;3.00;3.00;;;;;22.81;55.87;100934.69;5021770;28;45407;-63
2021/08/26 10:42:23;;;;;;;;;3.50;3.00;;;;;22.75;55.98;100928.84;5055246;28;45263;-62
2021/08/26 10:45:10;;;;;;;;;2.00;2.00;;;;;22.51;56.55;100939.00;5053634;28;45366;-64
2021/08/26 10:47:48;;;;;;;;;1.50;1.50;;;;;22.35;56.96;100942.13;5053520;28;45317;-62
2021/08/26 10:50:19;;;;;;;;;3.25;3.00;;;;;22.15;57.39;100955.34;5054995;28;46052;-63
2021/08/26 10:52:58;;;;;;;;;2.00;1.25;;;;;21.79;57.76;100957.44;5054932;28;45407;-63
2021/08/26 10:55:41;;;;;;;;;6.25;5.50;;;;;21.48;58.65;100962.56;5055474;28;45464;-63
2021/08/26 10:58:25;;;;;;;;;3.75;3.00;;;;;21.36;59.60;100969.75;5054848;28;45441;-63
2021/08/26 11:01:07;;;;;;;;;8.50;5.00;;;;;21.23;60.01;100956.50;5054375;28;46097;-63
2021/08/26 11:03:41;;;;;;;;;4.25;3.75;;;;;21.11;60.16;100961.84;5054834;28;45307;-63
2021/08/26 11:06:22;;;;;;;;;6.50;3.00;;;;;21.21;60.65;100963.81;5054391;28;45457;-63
2021/08/26 11:08:51;;;;;;;;;5.00;4.00;;;;;21.45;59.79;100967.19;5055081;28;45413;-63
2021/08/26 11:11:31;;;;;;;;;6.50;5.25;;;;;21.93;58.98;100956.31;5054459;28;45458;-63
2021/08/26 11:14:02;;;;;;;;;9.25;8.00;;;;;22.18;58.28;100957.78;5054753;28;45448;-63
2021/08/26 11:16:27;;;;;;;;;4.50;4.50;;;;;22.28;57.54;100958.72;5055151;28;45215;-62
2021/08/26 11:19:12;;;;;;;;;7.25;6.00;;;;;22.40;57.00;100955.97;5055063;28;45643;-62
2021/08/26 11:24:14;;;;;;;;;5.00;4.75;;;;;22.48;56.52;100961.56;5054575;28;45430;-61
2021/08/26 11:26:55;;;;;;;;;6.75;6.00;;;;;22.77;56.53;100961.75;5054087;28;45411;-65
2021/08/26 11:29:20;;;;;;;;;7.75;5.00;;;;;23.18;54.94;100951.06;5054383;28;45351;-62